createdAt,value
2019-05-20T00:00:52.888Z,11.90
2019-05-20T00:03:23.710Z,11.90
2019-05-20T00:05:55.266Z,11.90
2019-05-20T00:08:26.034Z,11.90
2019-05-20T00:10:56.529Z,11.90
2019-05-20T00:13:27.055Z,11.90
2019-05-20T00:15:57.675Z,11.90
2019-05-20T00:18:28.115Z,11.90
2019-05-20T00:20:58.637Z,11.80
2019-05-20T00:23:29.057Z,11.80
2019-05-20T00:25:59.631Z,11.90
2019-05-20T00:28:30.116Z,11.80
2019-05-20T00:31:00.545Z,11.80
2019-05-20T00:33:30.975Z,11.80
2019-05-20T00:36:01.395Z,11.80
2019-05-20T00:38:31.826Z,11.80
2019-05-20T00:41:02.557Z,11.70
2019-05-20T00:43:32.989Z,11.70
2019-05-20T00:46:03.512Z,11.70
2019-05-20T00:48:33.944Z,11.70
2019-05-20T00:51:05.391Z,11.70
2019-05-20T00:53:35.820Z,11.70
2019-05-20T00:56:06.350Z,11.70
2019-05-20T00:58:36.924Z,11.80
2019-05-20T01:03:37.014Z,11.80
2019-05-20T01:06:07.598Z,11.70
2019-05-20T01:08:38.235Z,11.70
2019-05-20T01:11:08.704Z,11.70
2019-05-20T01:13:39.322Z,11.70
2019-05-20T01:16:10.047Z,11.70
2019-05-20T01:18:40.519Z,11.60
2019-05-20T01:21:11.037Z,11.60
2019-05-20T01:23:41.443Z,11.60
2019-05-20T01:26:11.886Z,11.60
2019-05-20T01:28:42.457Z,11.60
2019-05-20T01:31:13.452Z,11.60
2019-05-20T01:33:43.880Z,11.60
2019-05-20T01:36:14.451Z,11.50
2019-05-20T01:38:45.040Z,11.60
2019-05-20T01:41:15.466Z,11.60
2019-05-20T01:43:45.895Z,11.50
2019-05-20T01:46:16.319Z,11.60
2019-05-20T01:48:46.746Z,11.60
2019-05-20T01:51:18.213Z,11.50
2019-05-20T01:53:48.627Z,11.50
2019-05-20T01:56:19.050Z,11.50
2019-05-20T01:58:49.478Z,11.50
2019-05-20T02:01:19.966Z,11.50
2019-05-20T02:03:50.438Z,11.50
2019-05-20T02:06:20.967Z,11.50
2019-05-20T02:08:51.806Z,11.50
2019-05-20T02:11:22.433Z,11.40
2019-05-20T02:14:15.082Z,11.40
2019-05-20T02:16:45.512Z,11.40
2019-05-20T02:19:15.948Z,11.40
2019-05-20T02:21:46.471Z,11.40
2019-05-20T02:24:16.893Z,11.40
2019-05-20T02:26:47.320Z,11.40
2019-05-20T02:29:17.746Z,11.40
2019-05-20T02:31:48.229Z,11.40
2019-05-20T02:34:18.703Z,11.40
2019-05-20T02:36:49.132Z,11.30
2019-05-20T02:39:19.558Z,11.40
2019-05-20T02:41:49.992Z,11.40
2019-05-20T02:44:20.515Z,11.30
2019-05-20T02:46:51.153Z,11.30
2019-05-20T02:49:21.576Z,11.30
2019-05-20T02:51:51.999Z,11.30
2019-05-20T02:54:22.431Z,11.30
2019-05-20T02:56:52.976Z,11.40
2019-05-20T02:59:23.484Z,11.30
2019-05-20T03:01:54.084Z,11.30
2019-05-20T03:04:24.587Z,11.30
2019-05-20T03:06:55.142Z,11.30
2019-05-20T03:09:25.860Z,11.30
2019-05-20T03:11:56.337Z,11.30
2019-05-20T03:14:26.766Z,11.30
2019-05-20T03:16:57.195Z,11.30
2019-05-20T03:19:27.921Z,11.30
2019-05-20T03:21:59.991Z,11.30
2019-05-20T03:24:30.416Z,11.30
2019-05-20T03:27:00.856Z,11.30
2019-05-20T03:29:31.375Z,11.30
2019-05-20T03:32:01.806Z,11.30
2019-05-20T03:34:47.858Z,11.30
2019-05-20T03:37:04.499Z,11.30
2019-05-20T03:39:35.135Z,11.30
2019-05-20T03:42:05.661Z,11.20
2019-05-20T03:44:36.086Z,11.30
2019-05-20T03:47:06.526Z,11.20
2019-05-20T03:49:36.939Z,11.30
2019-05-20T03:52:07.372Z,11.30
2019-05-20T03:54:38.004Z,11.30
2019-05-20T03:57:08.630Z,11.30
2019-05-20T03:59:39.075Z,11.30
2019-05-20T04:02:09.494Z,11.30
2019-05-20T04:04:39.921Z,11.30
2019-05-20T04:07:10.384Z,11.30
2019-05-20T04:09:40.912Z,11.30
2019-05-20T04:12:11.397Z,11.30
2019-05-20T04:14:41.828Z,11.30
2019-05-20T04:17:12.425Z,11.30
2019-05-20T04:19:44.021Z,11.30
2019-05-20T04:22:14.435Z,11.40
2019-05-20T04:24:44.862Z,11.40
2019-05-20T04:27:15.391Z,11.40
2019-05-20T04:29:45.926Z,11.50
2019-05-20T04:32:16.355Z,11.50
2019-05-20T04:34:46.785Z,11.50
2019-05-20T04:37:17.368Z,11.50
2019-05-20T04:39:47.839Z,11.50
2019-05-20T04:42:18.263Z,11.60
2019-05-20T04:44:48.692Z,11.60
2019-05-20T04:47:19.200Z,11.70
2019-05-20T04:49:49.752Z,11.70
2019-05-20T04:52:20.174Z,11.80
2019-05-20T04:54:50.610Z,11.80
2019-05-20T04:57:21.148Z,11.80
2019-05-20T04:59:51.764Z,11.90
2019-05-20T05:02:22.191Z,11.90
2019-05-20T05:04:52.791Z,11.90
2019-05-20T05:07:25.137Z,12.00
2019-05-20T05:09:55.766Z,12.00
2019-05-20T05:12:26.258Z,12.10
2019-05-20T05:14:56.783Z,12.10
2019-05-20T05:17:27.312Z,12.10
2019-05-20T05:19:58.759Z,12.20
2019-05-20T05:22:29.289Z,12.20
2019-05-20T05:24:59.718Z,12.30
2019-05-20T05:27:30.145Z,12.30
2019-05-20T05:30:01.626Z,12.50
2019-05-20T05:32:45.063Z,12.60
2019-05-20T05:35:19.141Z,12.80
2019-05-20T05:37:49.747Z,12.90
2019-05-20T05:40:21.865Z,13.00
2019-05-20T05:42:52.367Z,13.10
2019-05-20T05:45:29.186Z,13.30
2019-05-20T05:47:58.659Z,13.40
2019-05-20T05:50:31.634Z,13.50
2019-05-20T05:53:02.070Z,13.60
2019-05-20T05:55:32.488Z,13.70
2019-05-20T05:58:02.921Z,13.70
2019-05-20T06:00:33.350Z,13.60
2019-05-20T06:03:03.791Z,13.60
2019-05-20T06:05:34.201Z,13.70
2019-05-20T06:08:04.864Z,13.90
2019-05-20T06:10:36.031Z,13.90
2019-05-20T06:13:06.611Z,13.90
2019-05-20T06:15:37.031Z,14.10
2019-05-20T06:18:07.466Z,14.10
2019-05-20T06:20:38.912Z,14.10
2019-05-20T06:23:09.347Z,14.40
2019-05-20T06:25:39.772Z,14.40
2019-05-20T06:28:10.292Z,14.50
2019-05-20T06:30:44.347Z,14.50
2019-05-20T06:33:15.038Z,14.60
2019-05-20T06:35:45.670Z,14.80
2019-05-20T06:38:35.183Z,14.80
2019-05-20T06:41:07.236Z,15.00
2019-05-20T06:46:07.655Z,15.30
2019-05-20T06:48:38.083Z,16.10
2019-05-20T06:51:09.545Z,16.10
2019-05-20T06:53:39.976Z,16.30
2019-05-20T06:58:40.035Z,16.50
2019-05-20T07:01:10.543Z,16.70
2019-05-20T07:06:11.201Z,16.70
2019-05-20T07:08:41.995Z,17.20
2019-05-20T07:11:12.775Z,17.30
2019-05-20T07:13:43.243Z,17.30
2019-05-20T07:16:13.723Z,17.50
2019-05-20T07:18:44.125Z,17.80
2019-05-20T07:21:14.553Z,18.00
2019-05-20T07:23:45.073Z,18.10
2019-05-20T07:26:15.631Z,18.00
2019-05-20T07:28:46.059Z,18.00
2019-05-20T07:31:16.817Z,18.50
2019-05-20T07:33:47.408Z,19.00
2019-05-20T07:36:18.390Z,19.80
2019-05-20T07:38:49.021Z,20.60
2019-05-20T07:41:20.052Z,21.20
2019-05-20T07:43:50.549Z,21.40
2019-05-20T07:46:21.186Z,21.50
2019-05-20T07:48:52.343Z,22.00
2019-05-20T07:51:24.594Z,22.50
2019-05-20T07:53:56.466Z,22.60
2019-05-20T07:56:29.543Z,23.10
2019-05-20T07:59:02.707Z,23.90
2019-05-20T08:01:33.553Z,24.70
2019-05-20T08:04:04.022Z,25.90
2019-05-20T08:06:34.631Z,26.70
2019-05-20T08:09:06.556Z,26.60
2019-05-20T08:11:37.434Z,26.10
2019-05-20T08:14:08.036Z,26.20
2019-05-20T08:16:38.491Z,26.20
2019-05-20T08:19:08.918Z,25.30
2019-05-20T08:21:40.371Z,24.40
2019-05-20T08:24:10.899Z,24.20
2019-05-20T08:26:41.368Z,23.50
2019-05-20T08:29:11.931Z,22.70
2019-05-20T08:31:42.425Z,21.50
2019-05-20T08:34:12.909Z,21.30
2019-05-20T08:36:43.344Z,21.60
2019-05-20T08:39:13.835Z,22.40
2019-05-20T08:41:44.295Z,23.80
2019-05-20T08:44:14.767Z,24.30
2019-05-20T08:46:45.250Z,23.10
2019-05-20T08:49:17.119Z,22.00
2019-05-20T08:51:48.567Z,21.70
2019-05-20T08:54:19.096Z,22.70
2019-05-20T08:56:49.607Z,23.20
2019-05-20T08:59:20.092Z,22.90
2019-05-20T09:01:50.573Z,23.30
2019-05-20T09:04:21.001Z,24.50
2019-05-20T09:06:51.443Z,26.60
2019-05-20T09:09:21.927Z,27.20
2019-05-20T09:11:52.712Z,25.20
2019-05-20T09:14:23.402Z,23.50
2019-05-20T09:16:53.842Z,23.10
2019-05-20T09:19:24.319Z,23.20
2019-05-20T09:21:54.811Z,22.90
2019-05-20T09:24:25.237Z,21.80
2019-05-20T09:26:55.668Z,22.30
2019-05-20T09:29:32.896Z,23.80
2019-05-20T09:32:03.996Z,24.50
2019-05-20T09:34:34.539Z,25.00
2019-05-20T09:37:05.071Z,25.40
2019-05-20T09:39:35.474Z,25.20
2019-05-20T09:42:05.905Z,26.10
2019-05-20T09:44:36.342Z,27.70
2019-05-20T09:47:06.802Z,28.80
2019-05-20T09:49:37.318Z,28.10
2019-05-20T09:52:07.817Z,27.30
2019-05-20T09:54:38.245Z,26.00
2019-05-20T09:57:08.675Z,26.50
2019-05-20T09:59:43.490Z,27.40
2019-05-20T10:02:11.171Z,28.00
2019-05-20T10:04:41.582Z,28.40
2019-05-20T10:07:12.027Z,27.90
2019-05-20T10:09:42.445Z,27.80
2019-05-20T10:12:13.079Z,27.00
2019-05-20T10:14:43.652Z,26.40
2019-05-20T10:17:14.306Z,25.40
2019-05-20T10:19:44.773Z,24.40
2019-05-20T10:22:15.196Z,24.20
2019-05-20T10:24:45.623Z,24.30
2019-05-20T10:27:16.049Z,23.80
2019-05-20T10:29:46.585Z,24.20
2019-05-20T10:32:17.029Z,24.80
2019-05-20T10:34:47.480Z,25.00
2019-05-20T10:37:17.965Z,24.60
2019-05-20T10:39:48.389Z,24.50
2019-05-20T10:42:18.818Z,24.40
2019-05-20T10:44:49.247Z,24.00
2019-05-20T10:47:19.693Z,23.40
2019-05-20T10:49:51.168Z,22.60
2019-05-20T10:52:21.822Z,21.80
2019-05-20T10:54:52.386Z,21.40
2019-05-20T10:57:22.836Z,21.40
2019-05-20T10:59:53.332Z,21.60
2019-05-20T11:02:23.794Z,21.80
2019-05-20T11:04:54.356Z,22.50
2019-05-20T11:07:25.033Z,22.90
2019-05-20T11:09:55.459Z,23.30
2019-05-20T11:12:25.932Z,23.50
2019-05-20T11:14:56.461Z,23.80
2019-05-20T11:17:26.937Z,24.40
2019-05-20T11:19:58.455Z,24.90
2019-05-20T11:22:28.914Z,25.20
2019-05-20T11:24:59.354Z,24.90
2019-05-20T11:27:29.984Z,24.90
2019-05-20T11:30:00.413Z,25.20
2019-05-20T11:32:30.830Z,25.10
2019-05-20T11:35:01.443Z,25.80
2019-05-20T11:37:32.102Z,26.70
2019-05-20T11:40:02.966Z,28.80
2019-05-20T11:42:33.879Z,28.40
2019-05-20T11:45:04.310Z,26.60
2019-05-20T11:47:34.744Z,25.70
2019-05-20T11:50:05.919Z,25.10
2019-05-20T11:52:38.295Z,24.70
2019-05-20T11:55:08.958Z,24.60
2019-05-20T11:57:39.407Z,27.30
2019-05-20T12:00:15.371Z,30.70
2019-05-20T12:02:45.793Z,32.20
2019-05-20T12:05:16.321Z,33.60
2019-05-20T12:07:46.753Z,35.00
2019-05-20T12:10:17.451Z,36.00
2019-05-20T12:12:47.983Z,37.30
2019-05-20T12:15:18.651Z,38.00
2019-05-20T12:17:49.074Z,37.20
2019-05-20T12:20:19.875Z,35.20
2019-05-20T12:22:50.401Z,33.90
2019-05-20T12:25:20.862Z,34.50
2019-05-20T12:27:51.300Z,34.10
2019-05-20T12:30:23.267Z,33.10
2019-05-20T12:33:17.118Z,33.70
2019-05-20T12:35:27.066Z,35.20
2019-05-20T12:37:57.492Z,36.30
2019-05-20T12:40:27.932Z,37.60
2019-05-20T12:42:58.357Z,39.00
2019-05-20T12:45:28.805Z,40.70
2019-05-20T12:47:59.211Z,41.20
2019-05-20T12:50:30.680Z,40.70
2019-05-20T12:53:01.092Z,41.10
2019-05-20T12:55:31.559Z,41.20
2019-05-20T12:58:02.046Z,40.80
2019-05-20T13:00:33.538Z,41.70
2019-05-20T13:03:03.927Z,40.60
2019-05-20T13:05:34.353Z,41.00
2019-05-20T13:08:05.160Z,41.00
2019-05-20T13:10:36.125Z,41.00
2019-05-20T13:13:06.595Z,40.70
2019-05-20T13:15:37.227Z,40.10
2019-05-20T13:18:07.719Z,40.10
2019-05-20T13:20:38.450Z,41.00
2019-05-20T13:23:11.460Z,40.00
2019-05-20T13:25:41.625Z,39.00
2019-05-20T13:28:12.074Z,39.10
2019-05-20T13:30:42.511Z,39.10
2019-05-20T13:33:12.940Z,37.70
2019-05-20T13:35:43.653Z,37.10
2019-05-20T13:38:14.257Z,37.50
2019-05-20T13:40:47.083Z,37.40
2019-05-20T13:43:17.608Z,37.00
2019-05-20T13:45:48.573Z,37.00
2019-05-20T13:48:19.103Z,36.70
2019-05-20T13:50:52.698Z,37.00
2019-05-20T13:53:23.283Z,37.20
2019-05-20T13:55:53.748Z,37.80
2019-05-20T13:58:24.219Z,38.80
2019-05-20T14:00:54.689Z,37.40
2019-05-20T14:03:25.126Z,37.30
2019-05-20T14:05:55.555Z,37.00
2019-05-20T14:08:25.983Z,36.90
2019-05-20T14:11:04.753Z,37.50
2019-05-20T14:13:34.472Z,36.80
2019-05-20T14:16:07.034Z,36.80
2019-05-20T14:18:37.519Z,36.90
2019-05-20T14:21:08.158Z,36.70
2019-05-20T14:23:38.579Z,36.10
2019-05-20T14:26:09.007Z,36.10
2019-05-20T14:28:39.589Z,36.40
2019-05-20T14:31:10.073Z,36.10
2019-05-20T14:33:40.496Z,36.10
2019-05-20T14:36:11.012Z,35.50
2019-05-20T14:38:41.857Z,34.60
2019-05-20T14:41:21.430Z,35.30
2019-05-20T14:43:45.775Z,35.20
2019-05-20T14:46:16.209Z,35.00
2019-05-20T14:48:46.641Z,35.00
2019-05-20T14:51:17.272Z,33.90
2019-05-20T14:53:47.695Z,34.20
2019-05-20T14:56:18.125Z,35.10
2019-05-20T14:58:48.549Z,34.60
2019-05-20T15:01:19.024Z,34.30
2019-05-20T15:03:49.537Z,34.10
2019-05-20T15:06:19.950Z,33.70
2019-05-20T15:08:50.662Z,32.50
2019-05-20T15:11:37.054Z,31.80
2019-05-20T15:13:54.381Z,31.60
2019-05-20T15:16:25.120Z,32.20
2019-05-20T15:18:55.549Z,33.00
2019-05-20T15:21:29.443Z,32.70
2019-05-20T15:23:58.054Z,30.90
2019-05-20T15:26:28.467Z,29.90
2019-05-20T15:28:58.948Z,29.10
2019-05-20T15:31:29.493Z,28.50
2019-05-20T15:33:59.980Z,27.70
2019-05-20T15:36:30.395Z,27.00
2019-05-20T15:39:00.916Z,26.30
2019-05-20T15:41:33.353Z,25.30
2019-05-20T15:44:03.979Z,24.10
2019-05-20T15:46:34.512Z,23.40
2019-05-20T15:49:06.563Z,22.70
2019-05-20T15:51:38.224Z,22.30
2019-05-20T15:54:08.695Z,21.90
2019-05-20T15:56:39.177Z,21.50
2019-05-20T15:59:09.650Z,21.00
2019-05-20T16:01:41.091Z,20.90
2019-05-20T16:04:11.738Z,20.90
2019-05-20T16:06:42.392Z,20.80
2019-05-20T16:09:17.073Z,20.70
2019-05-20T16:11:46.089Z,20.50
2019-05-20T16:14:16.722Z,20.20
2019-05-20T16:16:47.456Z,19.90
2019-05-20T16:19:17.887Z,19.80
2019-05-20T16:21:49.659Z,19.80
2019-05-20T16:24:20.167Z,19.80
2019-05-20T16:26:50.594Z,19.60
2019-05-20T16:29:21.330Z,19.20
2019-05-20T16:31:51.858Z,19.10
2019-05-20T16:34:22.500Z,19.00
2019-05-20T16:36:52.916Z,19.20
2019-05-20T16:39:23.342Z,19.40
2019-05-20T16:41:53.773Z,19.60
2019-05-20T16:44:25.221Z,19.80
2019-05-20T16:46:55.870Z,20.00
2019-05-20T16:49:26.289Z,20.10
2019-05-20T16:51:56.730Z,19.90
2019-05-20T16:54:27.668Z,19.80
2019-05-20T16:56:58.222Z,19.60
2019-05-20T16:59:29.421Z,19.50
2019-05-20T17:01:59.847Z,19.50
2019-05-20T17:04:30.276Z,19.40
2019-05-20T17:07:00.912Z,19.10
2019-05-20T17:09:31.708Z,18.90
2019-05-20T17:12:02.499Z,18.70
2019-05-20T17:14:33.066Z,18.50
2019-05-20T17:17:04.638Z,18.40
2019-05-20T17:19:35.098Z,18.10
2019-05-20T17:22:05.995Z,17.90
2019-05-20T17:24:36.456Z,17.60
2019-05-20T17:27:07.096Z,17.40
2019-05-20T17:29:37.665Z,17.20
2019-05-20T17:32:08.045Z,17.20
2019-05-20T17:34:39.699Z,17.10
2019-05-20T17:37:10.332Z,17.00
2019-05-20T17:39:40.746Z,16.90
2019-05-20T17:42:11.175Z,16.80
2019-05-20T17:44:41.617Z,16.80
2019-05-20T17:47:12.346Z,16.70
2019-05-20T17:49:42.979Z,16.60
2019-05-20T17:52:13.396Z,16.50
2019-05-20T17:54:43.834Z,16.30
2019-05-20T17:57:14.435Z,16.30
2019-05-20T17:59:44.895Z,16.10
2019-05-20T18:02:15.420Z,15.90
2019-05-20T18:04:46.052Z,15.80
2019-05-20T18:07:16.486Z,15.70
2019-05-20T18:09:49.580Z,15.60
2019-05-20T18:12:20.125Z,15.60
2019-05-20T18:14:55.038Z,15.60
2019-05-20T18:17:25.807Z,15.50
2019-05-20T18:19:56.403Z,15.50
2019-05-20T18:24:56.611Z,15.50
2019-05-20T18:27:27.610Z,15.30
2019-05-20T18:29:58.104Z,15.20
2019-05-20T18:32:28.574Z,15.20
2019-05-20T18:34:59.058Z,15.10
2019-05-20T18:47:29.555Z,15.10
2019-05-20T18:49:59.984Z,14.80
2019-05-20T18:52:30.415Z,14.70
2019-05-20T18:55:00.837Z,14.70
2019-05-20T18:57:31.443Z,14.60
2019-05-20T19:00:02.097Z,14.60
2019-05-20T19:02:32.798Z,14.50
2019-05-20T19:05:03.263Z,14.40
2019-05-20T19:07:33.689Z,14.30
2019-05-20T19:12:35.710Z,14.30
2019-05-20T19:15:06.989Z,14.10
2019-05-20T19:17:37.834Z,14.00
2019-05-20T19:20:08.691Z,14.00
2019-05-20T19:22:39.220Z,14.00
2019-05-20T19:25:09.884Z,13.90
2019-05-20T19:27:40.383Z,13.80
2019-05-20T19:30:11.642Z,13.70
2019-05-20T19:32:42.071Z,13.60
2019-05-20T19:35:12.790Z,13.50
2019-05-20T19:37:43.685Z,13.40
2019-05-20T19:40:14.360Z,13.30
2019-05-20T19:42:44.888Z,13.30
2019-05-20T19:45:15.523Z,13.20
2019-05-20T19:47:45.950Z,13.10
2019-05-20T19:50:17.408Z,13.10
2019-05-20T19:52:48.033Z,13.10
2019-05-20T19:55:19.179Z,13.00
2019-05-20T19:57:52.685Z,12.90
2019-05-20T20:00:23.204Z,12.80
2019-05-20T20:02:53.631Z,12.70
2019-05-20T20:05:24.330Z,12.70
2019-05-20T20:07:54.895Z,12.60
2019-05-20T20:10:26.345Z,12.60
2019-05-20T20:12:56.779Z,12.50
2019-05-20T20:15:27.276Z,12.50
2019-05-20T20:17:57.776Z,12.40
2019-05-20T20:20:28.362Z,12.40
2019-05-20T20:22:58.946Z,12.30
2019-05-20T20:25:29.419Z,12.20
2019-05-20T20:27:59.857Z,12.20
2019-05-20T20:30:30.375Z,12.20
2019-05-20T20:33:00.821Z,12.20
2019-05-20T20:35:38.078Z,12.10
2019-05-20T20:38:03.294Z,12.10
2019-05-20T20:40:34.746Z,12.10
2019-05-20T20:43:05.172Z,12.10
2019-05-20T20:45:35.700Z,12.00
2019-05-20T20:48:06.272Z,12.00
2019-05-20T20:50:36.832Z,12.00
2019-05-20T20:53:07.292Z,11.90
2019-05-20T20:55:37.869Z,11.90
2019-05-20T20:58:08.346Z,11.80
2019-05-20T21:05:38.090Z,11.80
2019-05-20T21:08:08.725Z,11.60
2019-05-20T21:10:39.150Z,11.60
2019-05-20T21:13:09.735Z,11.50
2019-05-20T21:15:40.319Z,11.40
2019-05-20T21:18:10.891Z,11.40
2019-05-20T21:20:41.743Z,11.40
2019-05-20T21:23:12.309Z,11.40
2019-05-20T21:25:42.851Z,11.40
2019-05-20T21:28:13.292Z,11.40
2019-05-20T21:30:43.797Z,11.40
2019-05-20T21:33:14.243Z,11.40
2019-05-20T21:35:45.441Z,11.40
2019-05-20T21:38:16.206Z,11.30
2019-05-20T21:40:47.655Z,11.30
2019-05-20T21:45:47.585Z,11.40
2019-05-20T21:48:19.211Z,11.20
2019-05-20T21:50:49.840Z,11.20
2019-05-20T21:53:20.300Z,11.10
2019-05-20T21:55:50.751Z,11.10
2019-05-20T21:58:21.159Z,11.10
2019-05-20T22:00:54.589Z,11.10
2019-05-20T22:03:25.447Z,11.10
2019-05-20T22:05:56.030Z,11.00
2019-05-20T22:08:26.445Z,11.00
2019-05-20T22:10:57.897Z,11.00
2019-05-20T22:15:57.828Z,11.00
2019-05-20T22:18:28.405Z,10.90
2019-05-20T22:20:59.059Z,10.90
2019-05-20T22:23:43.551Z,10.90
2019-05-20T22:26:13.982Z,10.80
2019-05-20T22:28:44.402Z,10.80
2019-05-20T22:31:15.858Z,10.80
2019-05-20T22:33:46.283Z,10.80
2019-05-20T22:36:16.913Z,10.80
2019-05-20T22:38:49.683Z,10.80
2019-05-20T22:41:20.194Z,10.80
2019-05-20T22:43:50.729Z,10.70
2019-05-20T22:46:21.303Z,10.70
2019-05-20T22:48:51.709Z,10.70
2019-05-20T22:51:23.250Z,10.60
2019-05-20T22:53:53.791Z,10.50
2019-05-20T22:56:24.222Z,10.40
2019-05-20T22:58:54.646Z,10.40
2019-05-20T23:01:25.086Z,10.30
2019-05-20T23:03:56.708Z,10.30
2019-05-20T23:06:27.261Z,10.20
2019-05-20T23:08:57.763Z,10.20
2019-05-20T23:11:28.215Z,10.20
2019-05-20T23:13:58.647Z,10.20
2019-05-20T23:16:29.070Z,10.20
2019-05-20T23:18:59.564Z,10.10
2019-05-20T23:21:30.195Z,10.10
2019-05-20T23:24:00.660Z,10.10
2019-05-20T23:26:31.088Z,10.00
2019-05-20T23:29:02.649Z,10.00
2019-05-20T23:31:33.065Z,9.90
2019-05-20T23:34:12.451Z,9.90
2019-05-20T23:36:35.554Z,9.90
2019-05-20T23:39:07.579Z,9.90
2019-05-20T23:41:38.057Z,9.90
2019-05-20T23:44:08.476Z,9.90
2019-05-20T23:46:38.903Z,9.80
2019-05-20T23:49:09.329Z,9.80
2019-05-20T23:51:39.757Z,9.70
2019-05-20T23:54:10.247Z,9.70
2019-05-20T23:56:40.716Z,9.70
2019-05-20T23:59:11.139Z,9.70
